Time;durP1;ratioP1;P1;durP2;ratioP2;P2;SDS_P1;SDS_P2;PMS_P1;PMS_P2;Temp;Humidity;BMP_temperature;BMP_pressure;BME280_temperature;BME280_humidity;BME280_pressure;Samples;Min_cycle;Max_cycle;Signal;HPM_P1;HPM_P2
2023/02/09 10:12:28;;;;;;;36.30;30.50;;;4.00;98.10;;;;;;5086792;27;20306;-77
2023/02/09 10:14:55;;;;;;;34.27;30.77;;;5.00;94.20;;;;;;5086936;28;20438;-77
2023/02/09 10:17:21;;;;;;;34.67;30.77;;;5.10;94.60;;;;;;5086440;28;20443;-77
2023/02/09 10:20:01;;;;;;;36.73;30.80;;;5.40;93.60;;;;;;5086356;28;20443;-77
2023/02/09 10:22:27;;;;;;;33.97;30.17;;;5.90;93.10;;;;;;5086605;28;20471;-77
2023/02/09 10:24:54;;;;;;;35.17;31.40;;;6.00;92.00;;;;;;5086541;28;20451;-77
2023/02/09 10:27:27;;;;;;;34.90;30.87;;;6.30;91.80;;;;;;5086152;28;20457;-77
2023/02/09 10:29:55;;;;;;;32.07;28.87;;;6.50;90.70;;;;;;5086459;28;20492;-78
2023/02/09 10:32:28;;;;;;;34.80;30.50;;;6.60;90.10;;;;;;5086525;28;20890;-77
2023/02/09 10:34:56;;;;;;;36.73;32.77;;;6.30;90.10;;;;;;5086675;28;20945;-77
2023/02/09 10:37:27;;;;;;;40.60;31.37;;;6.30;90.00;;;;;;5086156;28;20458;-77
2023/02/09 10:40:07;;;;;;;34.27;30.80;;;6.40;90.10;;;;;;5086420;28;20446;-77
2023/02/09 10:42:37;;;;;;;36.30;32.37;;;6.10;90.80;;;;;;5086049;28;20438;-76
2023/02/09 10:45:08;;;;;;;35.60;31.80;;;5.90;91.10;;;;;;5085931;28;20474;-77
2023/02/09 10:47:35;;;;;;;35.77;31.93;;;6.20;91.50;;;;;;5086239;28;20537;-77
2023/02/09 10:50:13;;;;;;;34.30;30.40;;;7.30;90.40;;;;;;5085822;28;20478;-77
2023/02/09 10:52:44;;;;;;;35.87;32.00;;;8.10;85.00;;;;;;5086172;28;20458;-77
2023/02/09 10:55:19;;;;;;;35.40;31.70;;;8.40;82.50;;;;;;5086314;28;20474;-76
2023/02/09 10:57:48;;;;;;;34.37;30.90;;;8.30;80.80;;;;;;5085706;28;20945;-76
2023/02/09 11:00:31;;;;;;;36.60;32.93;;;8.30;81.00;;;;;;5085634;28;20447;-75
2023/02/09 11:03:01;;;;;;;36.87;32.90;;;8.80;80.00;;;;;;5085921;28;20465;-76
2023/02/09 11:05:31;;;;;;;35.43;31.63;;;8.50;78.80;;;;;;5085733;28;20447;-76
2023/02/09 11:08:06;;;;;;;33.77;30.40;;;8.60;78.70;;;;;;5085468;28;20466;-75
2023/02/09 11:10:38;;;;;;;36.20;31.37;;;8.50;79.20;;;;;;5092077;28;20586;-77
2023/02/09 11:13:17;;;;;;;35.67;32.00;;;8.90;76.30;;;;;;5092461;28;20446;-76
2023/02/09 11:15:57;;;;;;;35.90;32.57;;;9.10;75.70;;;;;;5092049;28;20451;-77
2023/02/09 11:18:26;;;;;;;37.63;33.87;;;9.50;74.20;;;;;;5092273;28;20442;-76
2023/02/09 11:21:00;;;;;;;33.97;30.30;;;9.20;74.50;;;;;;5092268;28;20473;-77
2023/02/09 11:23:43;;;;;;;37.30;33.47;;;9.30;73.00;;;;;;5092269;28;20453;-76
2023/02/09 11:26:20;;;;;;;39.17;35.20;;;9.30;74.50;;;;;;5090858;28;20465;-76
2023/02/09 11:28:56;;;;;;;41.10;36.73;;;10.00;72.00;;;;;;5091807;28;20469;-76
2023/02/09 11:31:45;;;;;;;35.17;31.70;;;9.70;71.30;;;;;;5091987;28;20482;-78
2023/02/09 11:34:24;;;;;;;33.43;30.17;;;9.40;73.10;;;;;;5092172;28;20454;-76
2023/02/09 11:37:02;;;;;;;36.80;32.70;;;10.10;69.30;;;;;;5091818;28;20537;-77
2023/02/09 11:39:40;;;;;;;34.70;31.13;;;10.60;68.80;;;;;;5091779;28;20457;-76
2023/02/09 11:45:03;;;;;;;36.60;33.20;;;11.60;63.80;;;;;;5091911;28;20472;-76
2023/02/09 11:47:45;;;;;;;35.47;31.47;;;11.50;61.40;;;;;;5091669;28;20537;-76
2023/02/09 11:50:24;;;;;;;36.23;32.63;;;10.70;62.90;;;;;;5091820;28;20478;-76
2023/02/09 11:52:55;;;;;;;32.07;28.57;;;10.20;64.40;;;;;;5091622;28;20446;-76
2023/02/09 11:55:28;;;;;;;35.27;31.43;;;10.60;64.20;;;;;;5091799;28;20457;-77
2023/02/09 11:58:03;;;;;;;35.57;31.90;;;10.30;63.60;;;;;;5091729;28;20465;-76
2023/02/09 12:00:41;;;;;;;32.53;29.17;;;10.80;63.90;;;;;;5091564;28;20446;-76
2023/02/09 12:03:12;;;;;;;34.20;30.80;;;11.50;61.70;;;;;;5091394;28;20473;-77
2023/02/09 12:05:41;;;;;;;34.90;31.43;;;10.80;61.80;;;;;;5091566;28;20491;-77
2023/02/09 12:08:36;;;;;;;35.53;32.07;;;11.00;62.20;;;;;;5091234;28;20446;-76
2023/02/09 12:11:16;;;;;;;34.10;30.83;;;11.10;60.80;;;;;;5089261;28;21123;-77
2023/02/09 12:13:58;;;;;;;36.30;32.40;;;11.60;62.30;;;;;;5091206;28;20461;-76
2023/02/09 12:16:31;;;;;;;33.97;30.37;;;12.00;59.50;;;;;;5091424;28;20865;-76
2023/02/09 12:18:57;;;;;;;35.03;31.63;;;11.70;60.80;;;;;;5091265;28;20454;-77
2023/02/09 12:21:31;;;;;;;34.50;31.17;;;12.20;59.70;;;;;;5091221;28;20446;-77
2023/02/09 12:23:58;;;;;;;36.50;33.00;;;12.00;59.20;;;;;;5090319;28;20486;-76
2023/02/09 12:26:41;;;;;;;34.97;31.80;;;11.60;59.30;;;;;;5091083;28;20451;-76
2023/02/09 12:29:25;;;;;;;37.10;33.47;;;11.20;59.90;;;;;;5090808;28;20951;-76
2023/02/09 12:32:24;;;;;;;33.57;30.10;;;10.60;62.60;;;;;;5090662;28;20486;-76
2023/02/09 12:34:53;;;;;;;35.27;31.60;;;11.00;61.60;;;;;;5090681;28;20538;-76
2023/02/09 12:37:23;;;;;;;33.77;30.37;;;11.50;60.00;;;;;;5090562;28;20789;-76
2023/02/09 12:40:17;;;;;;;33.40;30.40;;;11.10;60.20;;;;;;5090712;28;20461;-76
2023/02/09 12:42:45;;;;;;;30.97;28.07;;;11.20;60.10;;;;;;5090615;28;20459;-76
2023/02/09 12:45:30;;;;;;;32.17;29.33;;;11.00;60.70;;;;;;5090507;28;20451;-76
2023/02/09 12:48:00;;;;;;;33.90;30.77;;;11.20;61.70;;;;;;5089923;28;20461;-76
2023/02/09 12:50:34;;;;;;;35.67;32.33;;;10.90;59.80;;;;;;5090487;28;20486;-76
2023/02/09 12:53:34;;;;;;;33.60;30.17;;;10.30;62.80;;;;;;5090416;28;20500;-76
2023/02/09 12:56:04;;;;;;;33.30;29.83;;;11.30;61.20;;;;;;5090415;28;20863;-76
2023/02/09 12:58:36;;;;;;;33.47;30.17;;;11.70;60.90;;;;;;5090214;28;20507;-76
2023/02/09 13:01:03;;;;;;;33.83;30.80;;;12.20;58.30;;;;;;5090277;28;20451;-75
2023/02/09 13:03:40;;;;;;;32.80;29.50;;;11.70;58.00;;;;;;5090255;28;20454;-76
2023/02/09 13:06:21;;;;;;;31.63;28.67;;;11.10;59.70;;;;;;5090065;28;20466;-75
2023/02/09 13:08:52;;;;;;;32.47;29.67;;;11.30;59.90;;;;;;5090231;28;20881;-76
2023/02/09 13:11:25;;;;;;;29.40;26.80;;;11.70;58.40;;;;;;5089810;28;20995;-76
2023/02/09 13:13:56;;;;;;;32.23;29.07;;;12.20;58.60;;;;;;5090099;28;20499;-76
2023/02/09 13:16:57;;;;;;;34.93;31.63;;;12.50;57.70;;;;;;5090104;28;20457;-76
2023/02/09 13:19:58;;;;;;;32.03;28.93;;;12.70;56.80;;;;;;5090107;28;20968;-76
2023/02/09 13:22:40;;;;;;;32.63;29.40;;;12.00;56.60;;;;;;5090206;28;20441;-76
2023/02/09 13:25:16;;;;;;;31.23;28.30;;;11.30;57.10;;;;;;5089890;28;20442;-76
2023/02/09 13:27:47;;;;;;;32.17;28.97;;;10.30;58.90;;;;;;5089876;28;20450;-75
2023/02/09 13:30:25;;;;;;;31.50;28.47;;;9.30;61.60;;;;;;5089560;28;20446;-75
2023/02/09 13:33:01;;;;;;;32.23;28.70;;;8.40;64.20;;;;;;5089631;28;20478;-75
2023/02/09 13:35:34;;;;;;;30.10;27.30;;;7.70;67.00;;;;;;5089306;28;20439;-75
2023/02/09 13:38:08;;;;;;;31.33;28.33;;;7.40;68.70;;;;;;5089543;28;20446;-75
2023/02/09 13:40:35;;;;;;;31.60;28.50;;;7.00;70.30;;;;;;5089443;28;20462;-75
2023/02/09 13:43:16;;;;;;;34.17;28.60;;;6.50;72.80;;;;;;5089483;28;20446;-75
2023/02/09 13:45:46;;;;;;;31.70;28.40;;;6.40;74.10;;;;;;5089691;28;20442;-75
2023/02/09 13:48:22;;;;;;;29.90;26.90;;;6.40;75.10;;;;;;5089646;28;20439;-75
2023/02/09 13:50:50;;;;;;;32.47;27.37;;;6.40;75.00;;;;;;5089734;28;20817;-74
2023/02/09 13:53:19;;;;;;;29.70;26.60;;;6.20;76.60;;;;;;5089657;28;20450;-75
2023/02/09 13:55:46;;;;;;;33.57;27.80;;;6.30;77.30;;;;;;5089716;28;20766;-74
2023/02/09 13:58:19;;;;;;;28.37;25.40;;;6.20;77.90;;;;;;5089300;28;20788;-75
2023/02/09 14:00:49;;;;;;;28.90;25.80;;;6.20;78.60;;;;;;5089424;28;20447;-75
2023/02/09 14:03:19;;;;;;;30.13;27.13;;;6.20;78.60;;;;;;5089486;28;20454;-75
2023/02/09 14:05:52;;;;;;;30.23;27.03;;;6.20;78.70;;;;;;5089143;28;20873;-75
2023/02/09 14:08:21;;;;;;;29.83;26.70;;;6.20;78.70;;;;;;5089261;28;20598;-75
2023/02/09 14:10:50;;;;;;;35.30;29.07;;;6.20;79.20;;;;;;5088953;28;20486;-74
2023/02/09 14:13:22;;;;;;;32.73;29.37;;;6.10;79.10;;;;;;5089075;28;20445;-75
2023/02/09 14:16:06;;;;;;;30.67;27.10;;;6.00;80.10;;;;;;5089368;28;20451;-74
2023/02/09 14:18:45;;;;;;;32.83;29.30;;;6.00;80.50;;;;;;5089257;28;20896;-75
2023/02/09 14:21:31;;;;;;;29.93;26.77;;;6.00;81.00;;;;;;5089312;28;20446;-75
2023/02/09 14:24:14;;;;;;;31.00;27.37;;;6.00;80.90;;;;;;5089192;28;20454;-75
2023/02/09 14:26:47;;;;;;;30.63;27.43;;;6.10;81.40;;;;;;5089182;28;20453;-75
2023/02/09 14:29:17;;;;;;;33.43;30.00;;;6.10;82.20;;;;;;5088224;28;20447;-74
2023/02/09 14:31:45;;;;;;;32.57;27.37;;;5.90;82.00;;;;;;5088094;28;20486;-75
2023/02/09 14:34:30;;;;;;;34.40;28.67;;;6.00;83.00;;;;;;5088249;28;20442;-74
2023/02/09 14:37:01;;;;;;;30.77;27.47;;;6.10;83.30;;;;;;5088152;28;20504;-75
2023/02/09 14:39:30;;;;;;;32.10;28.20;;;6.00;82.80;;;;;;5088457;28;20454;-75
2023/02/09 14:42:16;;;;;;;34.07;30.23;;;6.00;83.30;;;;;;5088304;28;20451;-75
2023/02/09 14:44:49;;;;;;;31.60;27.57;;;6.10;83.70;;;;;;5088028;28;20541;-74
2023/02/09 14:47:36;;;;;;;36.83;28.93;;;6.00;83.50;;;;;;5089459;28;20450;-74
2023/02/09 14:50:04;;;;;;;30.50;27.30;;;6.00;83.80;;;;;;5091715;28;20478;-74
2023/02/09 14:52:32;;;;;;;32.67;27.40;;;6.00;83.50;;;;;;5091542;28;20808;-75
2023/02/09 14:55:03;;;;;;;30.73;27.40;;;5.90;83.70;;;;;;5091877;28;20458;-73
2023/02/09 14:57:34;;;;;;;34.37;29.50;;;5.90;85.00;;;;;;5091694;28;20459;-74
2023/02/09 15:00:01;;;;;;;36.30;29.60;;;5.80;86.00;;;;;;5091654;28;20538;-74
2023/02/09 15:02:28;;;;;;;32.20;28.70;;;5.50;86.50;;;;;;5091628;28;20439;-74
2023/02/09 15:04:55;;;;;;;35.00;29.97;;;5.40;87.70;;;;;;5091946;28;20454;-74
2023/02/09 15:07:28;;;;;;;35.00;29.83;;;5.40;88.20;;;;;;5091390;28;20535;-74
2023/02/09 15:09:56;;;;;;;34.47;29.50;;;5.30;89.00;;;;;;5091454;28;20447;-74
2023/02/09 15:12:26;;;;;;;34.83;28.70;;;5.20;89.40;;;;;;5091628;28;20482;-74
2023/02/09 15:14:57;;;;;;;36.97;30.17;;;5.20;89.80;;;;;;5091607;28;20446;-74
2023/02/09 15:17:26;;;;;;;33.40;28.70;;;5.20;90.40;;;;;;5091757;28;20499;-74
2023/02/09 15:19:54;;;;;;;44.13;30.03;;;5.10;90.40;;;;;;5091818;28;20801;-74
2023/02/09 15:22:21;;;;;;;37.63;30.00;;;5.00;90.90;;;;;;5091461;28;20443;-74
2023/02/09 15:24:50;;;;;;;36.33;28.43;;;5.00;90.90;;;;;;5091301;28;20447;-74
2023/02/09 15:27:25;;;;;;;36.73;30.70;;;5.00;91.10;;;;;;5091576;28;20593;-74
2023/02/09 15:29:53;;;;;;;36.50;32.47;;;5.00;91.10;;;;;;5091506;28;20438;-74
2023/02/09 15:32:21;;;;;;;38.40;28.30;;;4.90;91.00;;;;;;5091001;28;20543;-74
2023/02/09 15:34:48;;;;;;;35.33;29.10;;;4.90;91.20;;;;;;5090841;28;20458;-73
2023/02/09 15:37:20;;;;;;;33.37;29.80;;;4.80;91.40;;;;;;5090956;28;20817;-74
2023/02/09 15:39:48;;;;;;;34.40;28.77;;;4.80;91.80;;;;;;5090740;28;20447;-74
2023/02/09 15:48:00;;;;;;;35.63;30.10;;;4.80;92.00;;;;;;5090814;28;20476;-75
2023/02/09 15:50:27;;;;;;;34.33;30.10;;;4.70;92.20;;;;;;5090807;28;20450;-73
2023/02/09 15:52:56;;;;;;;35.43;30.47;;;4.60;92.50;;;;;;5090989;28;20531;-75
2023/02/09 15:55:24;;;;;;;33.03;29.40;;;4.60;92.70;;;;;;5091079;28;20812;-74
2023/02/09 15:57:52;;;;;;;39.63;29.93;;;4.50;93.00;;;;;;5090536;28;20544;-75
2023/02/09 16:00:23;;;;;;;33.20;29.67;;;4.50;93.50;;;;;;5090672;28;20455;-75
2023/02/09 16:02:51;;;;;;;34.90;28.93;;;4.40;93.90;;;;;;5090528;28;20953;-75
2023/02/09 16:05:18;;;;;;;34.20;27.80;;;4.30;94.80;;;;;;5090286;28;20453;-75
2023/02/09 16:07:44;;;;;;;40.27;29.50;;;4.20;95.30;;;;;;5089972;28;20474;-75
2023/02/09 16:10:21;;;;;;;31.70;28.27;;;4.10;95.70;;;;;;5090365;28;20600;-75
2023/02/09 16:12:49;;;;;;;35.27;28.30;;;4.00;95.60;;;;;;5090470;28;20597;-75
2023/02/09 16:15:16;;;;;;;29.97;26.70;;;3.90;96.10;;;;;;5090012;28;20450;-75
2023/02/09 16:17:45;;;;;;;33.53;30.00;;;3.80;96.40;;;;;;5090188;28;20473;-75
2023/02/09 16:20:12;;;;;;;32.87;27.60;;;3.70;96.80;;;;;;5090479;28;20816;-75
2023/02/09 16:22:40;;;;;;;36.40;28.73;;;3.60;97.60;;;;;;5090123;28;20443;-75
2023/02/09 16:25:20;;;;;;;31.50;26.80;;;3.60;98.10;;;;;;5090024;28;20937;-75
2023/02/09 16:27:47;;;;;;;33.70;28.07;;;3.50;98.30;;;;;;5090269;28;20453;-75
2023/02/09 16:30:19;;;;;;;31.63;27.43;;;3.40;99.10;;;;;;5090293;28;20784;-75
2023/02/09 16:32:47;;;;;;;38.23;29.70;;;3.20;99.40;;;;;;5089880;28;20483;-75
2023/02/09 16:35:15;;;;;;;37.03;28.43;;;3.00;99.90;;;;;;5090032;28;20494;-75
2023/02/09 16:37:43;;;;;;;35.30;29.77;;;2.80;99.90;;;;;;5089861;28;20841;-73
2023/02/09 16:40:22;;;;;;;33.20;27.00;;;2.60;99.90;;;;;;5089809;28;20461;-73
2023/02/09 16:42:49;;;;;;;35.07;28.87;;;2.50;99.90;;;;;;5089710;28;20688;-74
2023/02/09 16:45:17;;;;;;;29.33;26.00;;;2.30;99.90;;;;;;5089519;28;20938;-76
2023/02/09 16:47:48;;;;;;;34.47;28.60;;;2.30;99.90;;;;;;5089873;28;20457;-74
2023/02/09 16:50:23;;;;;;;34.07;29.30;;;2.20;99.90;;;;;;5089816;28;21020;-76
2023/02/09 16:52:51;;;;;;;40.53;30.40;;;2.00;99.90;;;;;;5089369;28;20478;-73
2023/02/09 16:55:25;;;;;;;40.80;28.63;;;1.90;99.90;;;;;;5089557;28;20478;-74
2023/02/09 16:57:54;;;;;;;39.47;29.23;;;1.90;99.90;;;;;;5089360;28;20439;-73
2023/02/09 17:00:22;;;;;;;32.57;28.77;;;1.90;99.90;;;;;;5088995;28;20504;-74
2023/02/09 17:02:52;;;;;;;32.63;28.20;;;1.80;99.90;;;;;;5089411;28;20446;-73
2023/02/09 17:05:24;;;;;;;40.07;30.50;;;1.80;99.90;;;;;;5089095;28;20478;-73
2023/02/09 17:07:53;;;;;;;39.37;31.00;;;1.70;99.90;;;;;;5089089;28;20474;-73
2023/02/09 17:10:23;;;;;;;36.50;28.17;;;1.50;99.90;;;;;;5088582;28;20489;-73
2023/02/09 17:12:50;;;;;;;37.13;29.60;;;1.40;99.90;;;;;;5088923;28;20487;-74
2023/02/09 17:15:17;;;;;;;38.17;30.20;;;1.30;99.90;;;;;;5088929;28;20855;-73
2023/02/09 17:17:48;;;;;;;44.40;32.40;;;1.10;99.90;;;;;;5088972;28;20472;-73
2023/02/09 17:20:17;;;;;;;42.67;31.50;;;1.00;99.90;;;;;;5088879;28;20450;-73
2023/02/09 17:22:46;;;;;;;38.40;31.97;;;1.00;99.90;;;;;;5088699;28;20451;-73
2023/02/09 17:25:16;;;;;;;39.10;28.63;;;0.90;99.90;;;;;;5089103;28;20458;-75
2023/02/09 17:27:43;;;;;;;39.00;29.90;;;0.80;99.90;;;;;;5088886;28;20451;-74
2023/02/09 17:30:12;;;;;;;43.90;31.77;;;0.70;99.90;;;;;;5088873;28;20455;-74
2023/02/09 17:32:39;;;;;;;42.83;33.13;;;0.70;99.90;;;;;;5088780;28;20505;-74
2023/02/09 17:35:14;;;;;;;37.00;32.67;;;0.70;99.90;;;;;;5088658;28;20455;-74
2023/02/09 17:37:41;;;;;;;34.83;29.27;;;0.80;99.90;;;;;;5088940;28;20470;-74
2023/02/09 17:40:13;;;;;;;46.43;31.07;;;0.70;99.90;;;;;;5088965;28;20478;-74
2023/02/09 17:42:40;;;;;;;38.20;31.33;;;0.60;99.90;;;;;;5088934;28;20443;-74
2023/02/09 17:45:17;;;;;;;43.87;35.37;;;0.50;99.90;;;;;;5088362;28;20784;-74
2023/02/09 17:47:45;;;;;;;42.10;34.13;;;0.40;99.90;;;;;;5088606;28;20511;-74
2023/02/09 17:50:11;;;;;;;43.70;33.20;;;0.30;99.90;;;;;;5088569;28;20890;-74
2023/02/09 17:52:38;;;;;;;46.20;32.73;;;0.30;99.90;;;;;;5088302;28;20981;-74
2023/02/09 17:55:05;;;;;;;39.90;30.67;;;0.10;99.90;;;;;;5088183;28;20956;-74
2023/02/09 17:57:33;;;;;;;40.60;31.10;;;0.10;99.90;;;;;;5088264;28;20475;-74
